Athol, ID

8:59 PM PDT on September 26, 2016 (GMT -0700)
North Idaho Prairie | | Change Station

Elev 2477 ft 47.94 °N, 116.74 °W | Updated 4 seconds ago

Clear
Clear
54.7 °F
Feels Like 54.7 °F
N
0.0
Wind Variable Wind from NNE
Gusts 1.0 mph

Today
High -- | Low -- °F
--% Chance of Precip.
Yesterday
High -- | Low -- °F
Precip. -- in
Pressure 30.05 in
Visibility 10.0 miles
Clouds Clear
Dew Point 45 °F
Humidity 70%
Rainfall 0.00 in
Snow Depth Not available.
6:39 AM 6:34 PM
Waning Crescent, 14% visible
METAR KCOE 270156Z AUTO 06005KT 10SM CLR 19/09 A3005 RMK AO2 SLPNO T01890094
Pressure 30.05 in
Visibility 10.0 miles
Clouds Clear
Dew Point 45 °F
Humidity 70%
Rainfall 0.00 in
Snow Depth Not available.
6:39 AM 6:34 PM
Waning Crescent, 14% visible
METAR KCOE 270156Z AUTO 06005KT 10SM CLR 19/09 A3005 RMK AO2 SLPNO T01890094

10-Day Weather Forecast

Almanac

Astronomy

Sep. 26, 2016 Rise Set
Actual Time
Civil Twilight
Nautical Twilight
Astronomical Twilight
Moon
Length of Visible Light
Length of Day
Tomorrow will be .
, % of the Moon is Illuminated

Today's Extremes

State Highs State Lows

Community

WunderPhotos

Upload Photos

1,942,029 photos uploaded!

WunderBlog® & News

Nearby

Air Quality

  Air Quality AQ Index Pollutant
Not available.

Snow Depth

Station Depth Elevation

Earthquake Activity

City Distance Mag. Time & Date
Minimum magnitude displayed is 2.5.

Coastal Water Temperatures

Place Temperature

Stations

Nearby Weather Stations

Station Location Temp. Windchill Dew Point Humidity Wind Precip. Elev Updated Type
                   

Watches & Warnings

There are currently no watches in effect.